sensor_id;sensor_type;location;lat;lon;timestamp;P1;durP1;ratioP1;P2;durP2;ratioP2
79019;SDS011;68422;44.714;37.756;2023-04-03T00:00:48;3.05;;;1.10;;
79019;SDS011;68422;44.714;37.756;2023-04-03T00:01:50;2.70;;;1.23;;
79019;SDS011;68422;44.714;37.756;2023-04-03T00:02:52;2.50;;;1.15;;
79019;SDS011;68422;44.714;37.756;2023-04-03T00:03:53;2.35;;;0.88;;
79019;SDS011;68422;44.714;37.756;2023-04-03T00:04:56;1.98;;;0.90;;
79019;SDS011;68422;44.714;37.756;2023-04-03T00:05:57;3.25;;;1.20;;
79019;SDS011;68422;44.714;37.756;2023-04-03T00:06:59;3.97;;;1.30;;
79019;SDS011;68422;44.714;37.756;2023-04-03T00:08:00;3.20;;;1.10;;
79019;SDS011;68422;44.714;37.756;2023-04-03T00:09:02;2.78;;;1.52;;
79019;SDS011;68422;44.714;37.756;2023-04-03T00:10:04;2.13;;;1.05;;
79019;SDS011;68422;44.714;37.756;2023-04-03T00:11:06;2.50;;;1.00;;
79019;SDS011;68422;44.714;37.756;2023-04-03T00:12:08;4.05;;;1.23;;
79019;SDS011;68422;44.714;37.756;2023-04-03T00:13:09;7.15;;;1.20;;
79019;SDS011;68422;44.714;37.756;2023-04-03T00:14:11;2.90;;;1.20;;
79019;SDS011;68422;44.714;37.756;2023-04-03T00:15:12;2.10;;;1.08;;
79019;SDS011;68422;44.714;37.756;2023-04-03T00:16:14;2.97;;;1.10;;
79019;SDS011;68422;44.714;37.756;2023-04-03T00:17:16;2.75;;;1.23;;
79019;SDS011;68422;44.714;37.756;2023-04-03T00:18:17;3.47;;;1.15;;
79019;SDS011;68422;44.714;37.756;2023-04-03T00:19:19;3.83;;;1.10;;
79019;SDS011;68422;44.714;37.756;2023-04-03T00:20:20;3.33;;;1.10;;
79019;SDS011;68422;44.714;37.756;2023-04-03T00:21:22;2.83;;;1.10;;
79019;SDS011;68422;44.714;37.756;2023-04-03T00:22:23;2.85;;;1.15;;
79019;SDS011;68422;44.714;37.756;2023-04-03T00:23:27;2.47;;;0.90;;
79019;SDS011;68422;44.714;37.756;2023-04-03T00:24:28;3.65;;;1.10;;
79019;SDS011;68422;44.714;37.756;2023-04-03T00:25:30;3.58;;;1.30;;
79019;SDS011;68422;44.714;37.756;2023-04-03T00:26:32;2.80;;;1.00;;
79019;SDS011;68422;44.714;37.756;2023-04-03T00:27:35;3.17;;;1.20;;
79019;SDS011;68422;44.714;37.756;2023-04-03T00:28:37;2.95;;;1.02;;
79019;SDS011;68422;44.714;37.756;2023-04-03T00:29:39;3.30;;;1.20;;
79019;SDS011;68422;44.714;37.756;2023-04-03T00:30:40;2.58;;;1.00;;
79019;SDS011;68422;44.714;37.756;2023-04-03T00:31:42;2.38;;;1.02;;
79019;SDS011;68422;44.714;37.756;2023-04-03T00:32:43;2.80;;;1.08;;
79019;SDS011;68422;44.714;37.756;2023-04-03T00:33:45;2.25;;;1.00;;
79019;SDS011;68422;44.714;37.756;2023-04-03T00:34:47;3.38;;;1.20;;
79019;SDS011;68422;44.714;37.756;2023-04-03T00:35:48;2.30;;;0.93;;
79019;SDS011;68422;44.714;37.756;2023-04-03T00:36:50;2.08;;;1.17;;
79019;SDS011;68422;44.714;37.756;2023-04-03T00:37:52;2.95;;;1.20;;
79019;SDS011;68422;44.714;37.756;2023-04-03T00:38:54;1.77;;;0.98;;
79019;SDS011;68422;44.714;37.756;2023-04-03T00:39:56;1.67;;;0.90;;
79019;SDS011;68422;44.714;37.756;2023-04-03T00:40:57;2.78;;;1.10;;
79019;SDS011;68422;44.714;37.756;2023-04-03T00:41:59;2.92;;;1.17;;
79019;SDS011;68422;44.714;37.756;2023-04-03T00:43:01;3.03;;;1.00;;
79019;SDS011;68422;44.714;37.756;2023-04-03T00:45:40;2.47;;;1.05;;
79019;SDS011;68422;44.714;37.756;2023-04-03T00:46:44;2.05;;;0.95;;
79019;SDS011;68422;44.714;37.756;2023-04-03T00:47:45;2.50;;;1.08;;
79019;SDS011;68422;44.714;37.756;2023-04-03T00:48:47;2.38;;;1.00;;
79019;SDS011;68422;44.714;37.756;2023-04-03T00:49:50;2.63;;;1.02;;
79019;SDS011;68422;44.714;37.756;2023-04-03T00:50:53;2.92;;;1.10;;
79019;SDS011;68422;44.714;37.756;2023-04-03T00:51:55;3.88;;;1.20;;
79019;SDS011;68422;44.714;37.756;2023-04-03T00:52:58;3.65;;;1.10;;
79019;SDS011;68422;44.714;37.756;2023-04-03T00:54:00;2.75;;;1.20;;
79019;SDS011;68422;44.714;37.756;2023-04-03T00:55:06;2.65;;;1.00;;
79019;SDS011;68422;44.714;37.756;2023-04-03T00:56:10;3.03;;;1.20;;
79019;SDS011;68422;44.714;37.756;2023-04-03T00:57:15;2.60;;;1.10;;
79019;SDS011;68422;44.714;37.756;2023-04-03T00:58:19;2.95;;;0.90;;
79019;SDS011;68422;44.714;37.756;2023-04-03T00:59:29;2.10;;;0.90;;
79019;SDS011;68422;44.714;37.756;2023-04-03T01:00:34;2.33;;;1.00;;
79019;SDS011;68422;44.714;37.756;2023-04-03T01:01:39;1.65;;;0.80;;
79019;SDS011;68422;44.714;37.756;2023-04-03T01:02:41;1.92;;;1.02;;
79019;SDS011;68422;44.714;37.756;2023-04-03T01:03:43;3.03;;;1.00;;
79019;SDS011;68422;44.714;37.756;2023-04-03T01:04:45;3.63;;;1.27;;
79019;SDS011;68422;44.714;37.756;2023-04-03T01:05:48;2.35;;;0.93;;
79019;SDS011;68422;44.714;37.756;2023-04-03T01:06:49;1.63;;;0.93;;
79019;SDS011;68422;44.714;37.756;2023-04-03T01:07:51;2.58;;;1.05;;
79019;SDS011;68422;44.714;37.756;2023-04-03T01:08:54;2.22;;;1.02;;
79019;SDS011;68422;44.714;37.756;2023-04-03T01:09:57;5.07;;;1.20;;
79019;SDS011;68422;44.714;37.756;2023-04-03T01:11:00;1.98;;;0.80;;
79019;SDS011;68422;44.714;37.756;2023-04-03T01:12:22;1.45;;;0.90;;
79019;SDS011;68422;44.714;37.756;2023-04-03T01:13:26;2.90;;;1.10;;
79019;SDS011;68422;44.714;37.756;2023-04-03T01:14:31;2.25;;;1.00;;
79019;SDS011;68422;44.714;37.756;2023-04-03T01:15:33;2.50;;;1.02;;
79019;SDS011;68422;44.714;37.756;2023-04-03T01:16:35;2.38;;;1.10;;
79019;SDS011;68422;44.714;37.756;2023-04-03T01:17:45;1.45;;;0.80;;
79019;SDS011;68422;44.714;37.756;2023-04-03T01:21:53;1.63;;;0.70;;
79019;SDS011;68422;44.714;37.756;2023-04-03T01:25:28;2.17;;;1.00;;
79019;SDS011;68422;44.714;37.756;2023-04-03T01:26:31;0.95;;;0.73;;
79019;SDS011;68422;44.714;37.756;2023-04-03T01:27:33;1.48;;;0.80;;
79019;SDS011;68422;44.714;37.756;2023-04-03T01:28:35;2.50;;;0.90;;
79019;SDS011;68422;44.714;37.756;2023-04-03T01:29:37;2.38;;;0.73;;
79019;SDS011;68422;44.714;37.756;2023-04-03T01:30:41;2.25;;;1.00;;
79019;SDS011;68422;44.714;37.756;2023-04-03T01:32:50;2.15;;;1.00;;
79019;SDS011;68422;44.714;37.756;2023-04-03T01:33:51;2.22;;;0.98;;
79019;SDS011;68422;44.714;37.756;2023-04-03T01:34:53;3.28;;;1.00;;
79019;SDS011;68422;44.714;37.756;2023-04-03T01:35:55;2.67;;;1.10;;
79019;SDS011;68422;44.714;37.756;2023-04-03T01:36:57;2.42;;;1.00;;
79019;SDS011;68422;44.714;37.756;2023-04-03T01:37:58;2.55;;;1.15;;
79019;SDS011;68422;44.714;37.756;2023-04-03T01:39:00;4.18;;;1.23;;
79019;SDS011;68422;44.714;37.756;2023-04-03T01:40:03;1.75;;;1.00;;
79019;SDS011;68422;44.714;37.756;2023-04-03T01:42:08;2.17;;;0.98;;
79019;SDS011;68422;44.714;37.756;2023-04-03T01:43:14;3.25;;;1.40;;
79019;SDS011;68422;44.714;37.756;2023-04-03T01:44:15;1.45;;;0.90;;
79019;SDS011;68422;44.714;37.756;2023-04-03T01:45:17;3.22;;;1.23;;
79019;SDS011;68422;44.714;37.756;2023-04-03T01:46:18;3.05;;;1.20;;
79019;SDS011;68422;44.714;37.756;2023-04-03T01:47:21;3.53;;;1.23;;
79019;SDS011;68422;44.714;37.756;2023-04-03T01:48:23;3.00;;;1.33;;
79019;SDS011;68422;44.714;37.756;2023-04-03T01:49:25;2.90;;;1.05;;
79019;SDS011;68422;44.714;37.756;2023-04-03T01:50:26;2.00;;;1.10;;
79019;SDS011;68422;44.714;37.756;2023-04-03T01:51:28;3.08;;;1.00;;
79019;SDS011;68422;44.714;37.756;2023-04-03T01:52:29;3.53;;;1.20;;
79019;SDS011;68422;44.714;37.756;2023-04-03T01:53:31;3.90;;;1.17;;
79019;SDS011;68422;44.714;37.756;2023-04-03T01:54:33;3.03;;;1.20;;
79019;SDS011;68422;44.714;37.756;2023-04-03T01:55:34;4.35;;;1.77;;
79019;SDS011;68422;44.714;37.756;2023-04-03T01:56:35;3.63;;;1.20;;
79019;SDS011;68422;44.714;37.756;2023-04-03T01:57:37;4.07;;;1.45;;
79019;SDS011;68422;44.714;37.756;2023-04-03T01:58:38;3.10;;;1.10;;
79019;SDS011;68422;44.714;37.756;2023-04-03T01:59:40;2.80;;;1.27;;
79019;SDS011;68422;44.714;37.756;2023-04-03T02:00:41;4.35;;;1.55;;
79019;SDS011;68422;44.714;37.756;2023-04-03T02:01:43;3.33;;;1.27;;
79019;SDS011;68422;44.714;37.756;2023-04-03T02:02:45;2.72;;;1.20;;
79019;SDS011;68422;44.714;37.756;2023-04-03T02:03:48;3.42;;;1.35;;
79019;SDS011;68422;44.714;37.756;2023-04-03T02:04:49;3.00;;;1.17;;
79019;SDS011;68422;44.714;37.756;2023-04-03T02:05:50;3.95;;;1.45;;
79019;SDS011;68422;44.714;37.756;2023-04-03T02:06:52;2.50;;;1.13;;
79019;SDS011;68422;44.714;37.756;2023-04-03T02:07:53;2.60;;;1.20;;
79019;SDS011;68422;44.714;37.756;2023-04-03T02:08:54;4.20;;;1.42;;
79019;SDS011;68422;44.714;37.756;2023-04-03T02:09:56;2.80;;;1.20;;
79019;SDS011;68422;44.714;37.756;2023-04-03T02:10:57;2.80;;;1.15;;
79019;SDS011;68422;44.714;37.756;2023-04-03T02:11:58;2.83;;;1.40;;
79019;SDS011;68422;44.714;37.756;2023-04-03T02:13:00;3.42;;;1.48;;
79019;SDS011;68422;44.714;37.756;2023-04-03T02:14:01;3.65;;;1.25;;
79019;SDS011;68422;44.714;37.756;2023-04-03T02:15:03;3.65;;;1.60;;
79019;SDS011;68422;44.714;37.756;2023-04-03T02:16:06;3.33;;;1.17;;
79019;SDS011;68422;44.714;37.756;2023-04-03T02:17:09;2.55;;;1.05;;
79019;SDS011;68422;44.714;37.756;2023-04-03T02:18:10;3.72;;;1.40;;
79019;SDS011;68422;44.714;37.756;2023-04-03T02:19:12;3.08;;;1.38;;
79019;SDS011;68422;44.714;37.756;2023-04-03T02:20:14;3.78;;;1.30;;
79019;SDS011;68422;44.714;37.756;2023-04-03T02:21:16;3.03;;;1.13;;
79019;SDS011;68422;44.714;37.756;2023-04-03T02:22:17;3.17;;;1.15;;
79019;SDS011;68422;44.714;37.756;2023-04-03T02:23:19;3.35;;;1.52;;
79019;SDS011;68422;44.714;37.756;2023-04-03T02:24:21;3.78;;;1.10;;
79019;SDS011;68422;44.714;37.756;2023-04-03T02:25:22;3.83;;;1.25;;
79019;SDS011;68422;44.714;37.756;2023-04-03T02:26:25;3.47;;;1.20;;
79019;SDS011;68422;44.714;37.756;2023-04-03T02:27:27;4.68;;;1.52;;
79019;SDS011;68422;44.714;37.756;2023-04-03T02:28:28;3.83;;;1.20;;
79019;SDS011;68422;44.714;37.756;2023-04-03T02:29:30;3.45;;;1.52;;
79019;SDS011;68422;44.714;37.756;2023-04-03T02:30:31;3.58;;;1.20;;
79019;SDS011;68422;44.714;37.756;2023-04-03T02:31:33;5.43;;;1.40;;
79019;SDS011;68422;44.714;37.756;2023-04-03T02:32:36;2.45;;;1.10;;
79019;SDS011;68422;44.714;37.756;2023-04-03T02:33:37;2.45;;;1.08;;
79019;SDS011;68422;44.714;37.756;2023-04-03T02:34:42;3.55;;;1.40;;
79019;SDS011;68422;44.714;37.756;2023-04-03T02:35:45;3.55;;;1.35;;
79019;SDS011;68422;44.714;37.756;2023-04-03T02:36:54;3.15;;;1.33;;
79019;SDS011;68422;44.714;37.756;2023-04-03T02:37:56;2.78;;;1.10;;
79019;SDS011;68422;44.714;37.756;2023-04-03T02:38:57;3.33;;;1.10;;
79019;SDS011;68422;44.714;37.756;2023-04-03T02:39:58;3.60;;;1.25;;
79019;SDS011;68422;44.714;37.756;2023-04-03T02:41:01;4.15;;;1.50;;
79019;SDS011;68422;44.714;37.756;2023-04-03T02:42:05;3.78;;;1.20;;
79019;SDS011;68422;44.714;37.756;2023-04-03T02:43:07;3.63;;;1.52;;
79019;SDS011;68422;44.714;37.756;2023-04-03T02:44:11;3.25;;;1.30;;
79019;SDS011;68422;44.714;37.756;2023-04-03T02:45:12;3.17;;;1.23;;
79019;SDS011;68422;44.714;37.756;2023-04-03T02:46:14;3.47;;;1.23;;
79019;SDS011;68422;44.714;37.756;2023-04-03T02:47:16;4.43;;;1.52;;
79019;SDS011;68422;44.714;37.756;2023-04-03T02:48:17;3.25;;;1.33;;
79019;SDS011;68422;44.714;37.756;2023-04-03T02:49:19;3.80;;;1.40;;
79019;SDS011;68422;44.714;37.756;2023-04-03T02:50:20;2.60;;;1.30;;
79019;SDS011;68422;44.714;37.756;2023-04-03T02:51:22;2.95;;;1.35;;
79019;SDS011;68422;44.714;37.756;2023-04-03T02:52:24;2.63;;;1.20;;
79019;SDS011;68422;44.714;37.756;2023-04-03T02:53:27;5.05;;;1.70;;
79019;SDS011;68422;44.714;37.756;2023-04-03T02:54:29;3.95;;;1.67;;
79019;SDS011;68422;44.714;37.756;2023-04-03T02:55:34;2.97;;;1.30;;
79019;SDS011;68422;44.714;37.756;2023-04-03T02:56:35;3.33;;;1.50;;
79019;SDS011;68422;44.714;37.756;2023-04-03T02:57:37;3.50;;;1.48;;
79019;SDS011;68422;44.714;37.756;2023-04-03T02:58:38;4.10;;;1.48;;
79019;SDS011;68422;44.714;37.756;2023-04-03T02:59:41;3.67;;;1.30;;
79019;SDS011;68422;44.714;37.756;2023-04-03T03:00:44;3.33;;;1.20;;
79019;SDS011;68422;44.714;37.756;2023-04-03T03:01:45;4.18;;;1.48;;
79019;SDS011;68422;44.714;37.756;2023-04-03T03:02:48;2.63;;;1.20;;
79019;SDS011;68422;44.714;37.756;2023-04-03T03:03:49;3.58;;;1.23;;
79019;SDS011;68422;44.714;37.756;2023-04-03T03:04:51;4.00;;;1.45;;
79019;SDS011;68422;44.714;37.756;2023-04-03T03:06:05;3.42;;;1.48;;
79019;SDS011;68422;44.714;37.756;2023-04-03T03:07:07;4.70;;;1.58;;
79019;SDS011;68422;44.714;37.756;2023-04-03T03:08:09;5.15;;;1.35;;
79019;SDS011;68422;44.714;37.756;2023-04-03T03:09:10;4.40;;;1.55;;
79019;SDS011;68422;44.714;37.756;2023-04-03T03:10:13;3.70;;;1.40;;
79019;SDS011;68422;44.714;37.756;2023-04-03T03:11:14;4.50;;;1.58;;
79019;SDS011;68422;44.714;37.756;2023-04-03T03:12:16;2.53;;;1.30;;
79019;SDS011;68422;44.714;37.756;2023-04-03T03:13:22;4.28;;;1.27;;
79019;SDS011;68422;44.714;37.756;2023-04-03T03:14:23;4.35;;;1.48;;
79019;SDS011;68422;44.714;37.756;2023-04-03T03:15:25;4.38;;;1.48;;
79019;SDS011;68422;44.714;37.756;2023-04-03T03:16:26;3.78;;;1.40;;
79019;SDS011;68422;44.714;37.756;2023-04-03T03:17:27;4.28;;;1.50;;
79019;SDS011;68422;44.714;37.756;2023-04-03T03:18:29;4.05;;;1.55;;
79019;SDS011;68422;44.714;37.756;2023-04-03T03:19:31;3.67;;;1.80;;
79019;SDS011;68422;44.714;37.756;2023-04-03T03:20:32;4.10;;;1.30;;
79019;SDS011;68422;44.714;37.756;2023-04-03T03:21:33;3.67;;;1.30;;
79019;SDS011;68422;44.714;37.756;2023-04-03T03:22:36;3.17;;;1.30;;
79019;SDS011;68422;44.714;37.756;2023-04-03T03:23:38;4.40;;;1.35;;
79019;SDS011;68422;44.714;37.756;2023-04-03T03:24:40;4.30;;;1.85;;
79019;SDS011;68422;44.714;37.756;2023-04-03T03:25:41;2.92;;;1.42;;
79019;SDS011;68422;44.714;37.756;2023-04-03T03:26:43;3.28;;;1.40;;
79019;SDS011;68422;44.714;37.756;2023-04-03T03:27:44;5.03;;;1.70;;
79019;SDS011;68422;44.714;37.756;2023-04-03T03:28:46;3.90;;;1.50;;
79019;SDS011;68422;44.714;37.756;2023-04-03T03:29:47;3.60;;;1.65;;
79019;SDS011;68422;44.714;37.756;2023-04-03T03:30:49;3.65;;;1.38;;
79019;SDS011;68422;44.714;37.756;2023-04-03T03:31:51;3.58;;;1.33;;
79019;SDS011;68422;44.714;37.756;2023-04-03T03:32:53;3.53;;;1.65;;
79019;SDS011;68422;44.714;37.756;2023-04-03T03:33:54;4.53;;;2.10;;
79019;SDS011;68422;44.714;37.756;2023-04-03T03:34:57;3.90;;;1.50;;
79019;SDS011;68422;44.714;37.756;2023-04-03T03:35:59;3.40;;;1.40;;
79019;SDS011;68422;44.714;37.756;2023-04-03T03:37:01;3.88;;;1.27;;
79019;SDS011;68422;44.714;37.756;2023-04-03T03:38:03;3.80;;;1.30;;
79019;SDS011;68422;44.714;37.756;2023-04-03T03:39:05;3.75;;;1.60;;
79019;SDS011;68422;44.714;37.756;2023-04-03T03:40:07;4.22;;;1.42;;
79019;SDS011;68422;44.714;37.756;2023-04-03T03:41:09;4.93;;;1.95;;
79019;SDS011;68422;44.714;37.756;2023-04-03T03:42:11;3.10;;;1.35;;
79019;SDS011;68422;44.714;37.756;2023-04-03T03:43:12;4.53;;;1.40;;
79019;SDS011;68422;44.714;37.756;2023-04-03T03:44:14;3.38;;;1.50;;
79019;SDS011;68422;44.714;37.756;2023-04-03T03:45:15;4.88;;;1.52;;
79019;SDS011;68422;44.714;37.756;2023-04-03T03:46:17;4.78;;;1.60;;
79019;SDS011;68422;44.714;37.756;2023-04-03T03:47:18;4.68;;;1.67;;
79019;SDS011;68422;44.714;37.756;2023-04-03T03:48:20;4.00;;;1.45;;
79019;SDS011;68422;44.714;37.756;2023-04-03T03:49:21;4.40;;;1.50;;
79019;SDS011;68422;44.714;37.756;2023-04-03T03:50:23;4.68;;;1.77;;
79019;SDS011;68422;44.714;37.756;2023-04-03T03:51:25;4.32;;;1.80;;
79019;SDS011;68422;44.714;37.756;2023-04-03T03:52:26;4.72;;;1.73;;
79019;SDS011;68422;44.714;37.756;2023-04-03T03:53:28;4.30;;;1.33;;
79019;SDS011;68422;44.714;37.756;2023-04-03T03:54:34;4.22;;;1.98;;
79019;SDS011;68422;44.714;37.756;2023-04-03T03:55:35;3.47;;;1.40;;
79019;SDS011;68422;44.714;37.756;2023-04-03T03:56:36;4.45;;;1.70;;
79019;SDS011;68422;44.714;37.756;2023-04-03T03:57:38;5.47;;;1.75;;
79019;SDS011;68422;44.714;37.756;2023-04-03T03:58:39;4.13;;;1.35;;
79019;SDS011;68422;44.714;37.756;2023-04-03T03:59:41;6.85;;;1.48;;
79019;SDS011;68422;44.714;37.756;2023-04-03T04:00:43;5.13;;;1.70;;
79019;SDS011;68422;44.714;37.756;2023-04-03T04:01:45;5.38;;;1.50;;
79019;SDS011;68422;44.714;37.756;2023-04-03T04:02:46;4.85;;;1.70;;
79019;SDS011;68422;44.714;37.756;2023-04-03T04:03:51;5.80;;;1.52;;
79019;SDS011;68422;44.714;37.756;2023-04-03T04:04:58;5.05;;;1.58;;
79019;SDS011;68422;44.714;37.756;2023-04-03T04:05:59;3.08;;;1.35;;
79019;SDS011;68422;44.714;37.756;2023-04-03T04:07:01;4.95;;;1.50;;
79019;SDS011;68422;44.714;37.756;2023-04-03T04:08:04;6.00;;;1.70;;
79019;SDS011;68422;44.714;37.756;2023-04-03T04:09:05;4.63;;;1.77;;
79019;SDS011;68422;44.714;37.756;2023-04-03T04:10:07;4.38;;;1.70;;
79019;SDS011;68422;44.714;37.756;2023-04-03T04:11:09;3.00;;;1.50;;
79019;SDS011;68422;44.714;37.756;2023-04-03T04:12:10;7.63;;;1.73;;
79019;SDS011;68422;44.714;37.756;2023-04-03T04:13:12;4.93;;;1.52;;
79019;SDS011;68422;44.714;37.756;2023-04-03T04:14:14;4.57;;;1.60;;
79019;SDS011;68422;44.714;37.756;2023-04-03T04:15:17;3.92;;;1.95;;
79019;SDS011;68422;44.714;37.756;2023-04-03T04:16:18;7.25;;;1.95;;
79019;SDS011;68422;44.714;37.756;2023-04-03T04:17:20;3.90;;;1.75;;
79019;SDS011;68422;44.714;37.756;2023-04-03T04:18:22;5.05;;;1.83;;
79019;SDS011;68422;44.714;37.756;2023-04-03T04:19:24;5.70;;;1.65;;
79019;SDS011;68422;44.714;37.756;2023-04-03T04:20:26;4.68;;;1.50;;
79019;SDS011;68422;44.714;37.756;2023-04-03T04:21:27;4.30;;;1.30;;
79019;SDS011;68422;44.714;37.756;2023-04-03T04:22:29;3.85;;;1.73;;
79019;SDS011;68422;44.714;37.756;2023-04-03T04:23:30;6.50;;;1.60;;
79019;SDS011;68422;44.714;37.756;2023-04-03T04:24:33;3.75;;;1.65;;
79019;SDS011;68422;44.714;37.756;2023-04-03T04:25:36;4.43;;;1.63;;
79019;SDS011;68422;44.714;37.756;2023-04-03T04:26:38;4.53;;;1.70;;
79019;SDS011;68422;44.714;37.756;2023-04-03T04:27:41;8.55;;;2.30;;
79019;SDS011;68422;44.714;37.756;2023-04-03T04:28:42;4.25;;;2.00;;
79019;SDS011;68422;44.714;37.756;2023-04-03T04:29:44;3.35;;;1.60;;
79019;SDS011;68422;44.714;37.756;2023-04-03T04:30:45;3.70;;;1.40;;
79019;SDS011;68422;44.714;37.756;2023-04-03T04:31:48;4.85;;;1.60;;
79019;SDS011;68422;44.714;37.756;2023-04-03T04:32:49;3.88;;;1.55;;
79019;SDS011;68422;44.714;37.756;2023-04-03T04:33:51;7.43;;;1.70;;
79019;SDS011;68422;44.714;37.756;2023-04-03T04:34:52;5.90;;;1.60;;
79019;SDS011;68422;44.714;37.756;2023-04-03T04:35:54;9.35;;;2.40;;
79019;SDS011;68422;44.714;37.756;2023-04-03T04:36:56;7.22;;;1.60;;
79019;SDS011;68422;44.714;37.756;2023-04-03T04:37:57;6.63;;;1.60;;
79019;SDS011;68422;44.714;37.756;2023-04-03T04:38:59;7.85;;;1.85;;
79019;SDS011;68422;44.714;37.756;2023-04-03T04:40:01;5.97;;;1.80;;
79019;SDS011;68422;44.714;37.756;2023-04-03T04:41:04;4.95;;;1.52;;
79019;SDS011;68422;44.714;37.756;2023-04-03T04:42:06;5.50;;;1.70;;
79019;SDS011;68422;44.714;37.756;2023-04-03T04:43:09;5.70;;;1.67;;
79019;SDS011;68422;44.714;37.756;2023-04-03T04:44:15;10.27;;;1.77;;
79019;SDS011;68422;44.714;37.756;2023-04-03T04:45:16;6.63;;;1.60;;
79019;SDS011;68422;44.714;37.756;2023-04-03T04:46:19;5.32;;;1.70;;
79019;SDS011;68422;44.714;37.756;2023-04-03T04:47:27;4.60;;;1.50;;
79019;SDS011;68422;44.714;37.756;2023-04-03T04:48:29;3.45;;;1.50;;
79019;SDS011;68422;44.714;37.756;2023-04-03T04:49:31;4.80;;;1.40;;
79019;SDS011;68422;44.714;37.756;2023-04-03T04:50:32;6.47;;;1.50;;
79019;SDS011;68422;44.714;37.756;2023-04-03T04:51:34;7.03;;;1.65;;
79019;SDS011;68422;44.714;37.756;2023-04-03T04:52:35;3.67;;;1.33;;
79019;SDS011;68422;44.714;37.756;2023-04-03T04:53:37;3.80;;;1.55;;
79019;SDS011;68422;44.714;37.756;2023-04-03T04:54:39;6.70;;;1.63;;
79019;SDS011;68422;44.714;37.756;2023-04-03T04:55:41;7.25;;;1.50;;
79019;SDS011;68422;44.714;37.756;2023-04-03T04:56:43;4.05;;;1.40;;
79019;SDS011;68422;44.714;37.756;2023-04-03T04:57:44;3.63;;;1.33;;
79019;SDS011;68422;44.714;37.756;2023-04-03T04:58:47;4.82;;;1.30;;
79019;SDS011;68422;44.714;37.756;2023-04-03T04:59:50;3.85;;;1.50;;
79019;SDS011;68422;44.714;37.756;2023-04-03T05:00:58;3.63;;;1.20;;
79019;SDS011;68422;44.714;37.756;2023-04-03T05:02:00;7.43;;;1.55;;
79019;SDS011;68422;44.714;37.756;2023-04-03T05:03:02;3.78;;;1.23;;
79019;SDS011;68422;44.714;37.756;2023-04-03T05:04:03;5.60;;;1.48;;
79019;SDS011;68422;44.714;37.756;2023-04-03T05:05:05;4.63;;;1.58;;
79019;SDS011;68422;44.714;37.756;2023-04-03T05:06:08;4.30;;;1.50;;
79019;SDS011;68422;44.714;37.756;2023-04-03T05:07:10;4.72;;;1.55;;
79019;SDS011;68422;44.714;37.756;2023-04-03T05:08:12;4.82;;;1.73;;
79019;SDS011;68422;44.714;37.756;2023-04-03T05:09:15;3.55;;;1.27;;
79019;SDS011;68422;44.714;37.756;2023-04-03T05:10:18;4.40;;;1.50;;
79019;SDS011;68422;44.714;37.756;2023-04-03T05:11:21;5.30;;;1.60;;
79019;SDS011;68422;44.714;37.756;2023-04-03T05:12:24;2.67;;;1.30;;
79019;SDS011;68422;44.714;37.756;2023-04-03T05:13:31;3.72;;;1.33;;
79019;SDS011;68422;44.714;37.756;2023-04-03T05:14:32;4.55;;;1.52;;
79019;SDS011;68422;44.714;37.756;2023-04-03T05:15:37;4.40;;;1.75;;
79019;SDS011;68422;44.714;37.756;2023-04-03T05:16:39;4.47;;;1.55;;
79019;SDS011;68422;44.714;37.756;2023-04-03T05:17:41;5.10;;;1.30;;
79019;SDS011;68422;44.714;37.756;2023-04-03T05:18:46;4.93;;;1.50;;
79019;SDS011;68422;44.714;37.756;2023-04-03T05:19:52;5.00;;;1.25;;
79019;SDS011;68422;44.714;37.756;2023-04-03T05:20:56;6.10;;;1.30;;
79019;SDS011;68422;44.714;37.756;2023-04-03T05:23:03;4.88;;;1.63;;
79019;SDS011;68422;44.714;37.756;2023-04-03T05:24:05;5.13;;;1.60;;
79019;SDS011;68422;44.714;37.756;2023-04-03T05:25:12;3.60;;;1.20;;
79019;SDS011;68422;44.714;37.756;2023-04-03T05:26:17;3.88;;;1.27;;
79019;SDS011;68422;44.714;37.756;2023-04-03T05:27:20;4.07;;;1.30;;
79019;SDS011;68422;44.714;37.756;2023-04-03T05:28:27;4.68;;;1.30;;
79019;SDS011;68422;44.714;37.756;2023-04-03T05:29:28;3.75;;;1.60;;
79019;SDS011;68422;44.714;37.756;2023-04-03T05:30:32;4.10;;;1.40;;
79019;SDS011;68422;44.714;37.756;2023-04-03T05:31:36;3.72;;;1.30;;
79019;SDS011;68422;44.714;37.756;2023-04-03T05:32:37;3.05;;;1.13;;
79019;SDS011;68422;44.714;37.756;2023-04-03T05:33:49;3.63;;;1.58;;
79019;SDS011;68422;44.714;37.756;2023-04-03T05:34:52;5.30;;;1.73;;
79019;SDS011;68422;44.714;37.756;2023-04-03T05:35:54;5.15;;;1.33;;
79019;SDS011;68422;44.714;37.756;2023-04-03T05:37:00;3.17;;;1.50;;
79019;SDS011;68422;44.714;37.756;2023-04-03T05:38:03;3.90;;;1.42;;
79019;SDS011;68422;44.714;37.756;2023-04-03T05:39:06;4.60;;;1.45;;
79019;SDS011;68422;44.714;37.756;2023-04-03T05:40:11;3.45;;;1.23;;
79019;SDS011;68422;44.714;37.756;2023-04-03T05:41:16;4.90;;;1.60;;
79019;SDS011;68422;44.714;37.756;2023-04-03T05:42:19;3.60;;;1.25;;
79019;SDS011;68422;44.714;37.756;2023-04-03T05:43:21;3.70;;;1.20;;
79019;SDS011;68422;44.714;37.756;2023-04-03T05:44:23;3.72;;;1.50;;
79019;SDS011;68422;44.714;37.756;2023-04-03T05:45:26;4.63;;;1.48;;
79019;SDS011;68422;44.714;37.756;2023-04-03T05:46:27;4.18;;;1.50;;
79019;SDS011;68422;44.714;37.756;2023-04-03T05:47:31;6.18;;;1.40;;
79019;SDS011;68422;44.714;37.756;2023-04-03T05:48:32;3.33;;;1.27;;
79019;SDS011;68422;44.714;37.756;2023-04-03T05:49:34;2.90;;;1.40;;
79019;SDS011;68422;44.714;37.756;2023-04-03T05:50:35;3.00;;;1.27;;
79019;SDS011;68422;44.714;37.756;2023-04-03T05:51:42;3.72;;;1.30;;
79019;SDS011;68422;44.714;37.756;2023-04-03T05:52:54;3.03;;;1.30;;
79019;SDS011;68422;44.714;37.756;2023-04-03T05:55:57;2.97;;;1.15;;
79019;SDS011;68422;44.714;37.756;2023-04-03T05:56:58;3.92;;;1.10;;
79019;SDS011;68422;44.714;37.756;2023-04-03T05:58:01;3.67;;;1.50;;
79019;SDS011;68422;44.714;37.756;2023-04-03T05:59:02;4.43;;;1.30;;
79019;SDS011;68422;44.714;37.756;2023-04-03T06:00:04;4.47;;;1.52;;
79019;SDS011;68422;44.714;37.756;2023-04-03T06:01:14;4.75;;;2.15;;
79019;SDS011;68422;44.714;37.756;2023-04-03T06:02:19;4.30;;;1.20;;
79019;SDS011;68422;44.714;37.756;2023-04-03T06:03:23;4.25;;;1.30;;
79019;SDS011;68422;44.714;37.756;2023-04-03T06:04:25;2.92;;;1.13;;
79019;SDS011;68422;44.714;37.756;2023-04-03T06:05:26;4.13;;;1.63;;
79019;SDS011;68422;44.714;37.756;2023-04-03T06:06:44;4.13;;;1.40;;
79019;SDS011;68422;44.714;37.756;2023-04-03T06:07:48;4.40;;;1.40;;
79019;SDS011;68422;44.714;37.756;2023-04-03T06:08:50;3.85;;;1.23;;
79019;SDS011;68422;44.714;37.756;2023-04-03T06:09:52;3.40;;;1.48;;
79019;SDS011;68422;44.714;37.756;2023-04-03T06:10:53;3.30;;;1.45;;
79019;SDS011;68422;44.714;37.756;2023-04-03T06:11:55;3.65;;;1.27;;
79019;SDS011;68422;44.714;37.756;2023-04-03T06:12:58;3.63;;;1.40;;
79019;SDS011;68422;44.714;37.756;2023-04-03T06:13:59;5.85;;;1.27;;
79019;SDS011;68422;44.714;37.756;2023-04-03T06:15:01;3.05;;;1.10;;
79019;SDS011;68422;44.714;37.756;2023-04-03T06:16:04;2.65;;;1.20;;
79019;SDS011;68422;44.714;37.756;2023-04-03T06:17:07;2.67;;;1.27;;
79019;SDS011;68422;44.714;37.756;2023-04-03T06:18:09;3.10;;;1.30;;
79019;SDS011;68422;44.714;37.756;2023-04-03T06:19:11;3.10;;;1.08;;
79019;SDS011;68422;44.714;37.756;2023-04-03T06:20:17;3.38;;;1.20;;
79019;SDS011;68422;44.714;37.756;2023-04-03T06:21:18;3.47;;;1.30;;
79019;SDS011;68422;44.714;37.756;2023-04-03T06:22:20;3.38;;;1.45;;
79019;SDS011;68422;44.714;37.756;2023-04-03T06:23:22;3.20;;;1.25;;